Alice Springs, Australia

11:58 AM ACST on October 15, 2019 (GMT +0930)
Alice Springs

Weather History for YBAS - August, 2019

Change the Weather History Date:

Sunday, August 18, 2019

  Actual Average Record
Temperature  
Mean Temperature 57 °F -  
Max Temperature 68 °F 77 °F 86 °F (1998)
Min Temperature 46 °F 47 °F 31 °F (2014)
Degree Days  
Heating Degree Days 8    
Growing Degree Days 7 (Base 50)    
Moisture  
Dew Point 27 °F    
Average Humidity 26    
Maximum Humidity 47    
Minimum Humidity 10    
Precipitation  
Precipitation 0.00 in 0.01 in - ()
Sea Level Pressure  
Sea Level Pressure 30.18 in    
Wind  
Wind Speed 9 mph ()    
Max Wind Speed 17 mph    
Max Gust Speed -    
Visibility 6.2 miles    
Events      
Averages and records for this station are not official NWS values.
T = Trace of Precipitation, MM = Missing Value Source: Averaged Metar Reports

Daily Weather History Graph

Daily Weather History Graph

Search for Another Location

Airport or City:

Astronomy

Aug. 18, 2019 Rise Set
Actual Time 6:58 AM ACST 6:18 PM ACST
Civil Twilight 6:35 AM ACST 6:41 PM ACST
Nautical Twilight 6:08 AM ACST 7:08 PM ACST
Astronomical Twilight 5:42 AM ACST 7:34 PM ACST
Moon 8:36 PM ACST (8/18) 8:39 AM ACST (8/18)
Length of Visible Light 12h 06m
Length of Day
11h 19m
Waning Gibbous, 94% of the Moon is Illuminated
Aug 18
Waning Gibbous
Aug 24
Last Quarter
Aug 30
New
Sep 6
First Quarter
Sep 14
Full

Hourly Weather History & Observations

Time (ACST) Temp. Windchill Dew Point Humidity Pressure Visibility Wind Dir Wind Speed Gust Speed Precip Events Conditions
12:00 AM 58 °F - 17 °F 10% 30.04 in - West 6.9 mph - -   Clear
12:00 AM 59.0 °F - 17.6 °F 20% 30.06 in 6.2 mi West 6.9 mph - N/A   Unknown
12:30 AM 59.0 °F - 19.4 °F 22% 30.06 in 6.2 mi West 5.8 mph - N/A   Unknown
1:00 AM 59.0 °F - 21.2 °F 23% 30.06 in 6.2 mi NW 5.8 mph - N/A   Unknown
1:30 AM 60.8 °F - 23.0 °F 23% 30.06 in 6.2 mi WNW 5.8 mph - N/A   Unknown
2:00 AM 59.0 °F - 23.0 °F 25% 30.06 in 6.2 mi West 8.1 mph - N/A   Unknown
2:30 AM 56 °F - 23 °F 16% 30.07 in - West 8.1 mph - -  
2:30 AM 55.4 °F - 23.0 °F 29% 30.09 in 6.2 mi West 8.1 mph - N/A   Unknown
3:00 AM 55 °F - 26 °F 20% 30.08 in - West 9.2 mph - -   Clear
3:00 AM 55.4 °F - 26.6 °F 33% 30.09 in 6.2 mi West 9.2 mph - N/A   Unknown
3:30 AM 58 °F - 30 °F 22% 30.09 in - West 8.1 mph - -  
3:30 AM 57.2 °F - 30.2 °F 36% 30.09 in 6.2 mi West 8.1 mph - N/A   Unknown
4:00 AM 57.2 °F - 30.2 °F 36% 30.09 in 6.2 mi West 6.9 mph - N/A   Unknown
4:30 AM 57.2 °F - 30.2 °F 36% 30.09 in 6.2 mi WSW 8.1 mph - N/A   Unknown
5:00 AM 55.4 °F - 30.2 °F 38% 30.12 in 6.2 mi WSW 8.1 mph - N/A   Unknown
5:30 AM 54 °F - 31 °F 29% 30.11 in - SW 4.6 mph - -  
5:30 AM 53.6 °F - 30.2 °F 41% 30.12 in 6.2 mi SW 4.6 mph - N/A   Unknown
6:00 AM 50 °F - 28 °F 30% 30.12 in - SW 6.9 mph - -   Clear
6:00 AM 50.0 °F - 28.4 °F 43% 30.12 in 6.2 mi SW 6.9 mph - N/A   Unknown
6:30 AM 51 °F - 30 °F 32% 30.14 in - SSW 5.8 mph - -  
6:30 AM 51.8 °F - 30.2 °F 44% 30.15 in 6.2 mi SSW 5.8 mph - N/A   Unknown
7:00 AM 50.0 °F - 30.2 °F 47% 30.15 in 6.2 mi SSW 4.6 mph - N/A   Unknown
7:30 AM 50.0 °F - 28.4 °F 43% 30.18 in 6.2 mi SSW 5.8 mph - N/A   Unknown
8:00 AM 55.4 °F - 30.2 °F 38% 30.21 in 6.2 mi SSW 5.8 mph - N/A   Unknown
8:30 AM 60 °F - 31 °F 22% 30.21 in - South 12.7 mph - -  
8:30 AM 60.8 °F - 30.2 °F 31% 30.21 in 6.2 mi South 12.7 mph - N/A   Unknown
9:00 AM 61 °F - 32 °F 22% 30.22 in - South 17.3 mph - -   Clear
9:00 AM 60.8 °F - 32.0 °F 34% 30.24 in 6.2 mi South 17.3 mph - N/A   Unknown
9:30 AM 62 °F - 32 °F 21% 30.23 in - South 16.1 mph - -  
9:30 AM 62.6 °F - 32.0 °F 32% 30.24 in 6.2 mi South 16.1 mph - N/A   Unknown
10:00 AM 62.6 °F - 32.0 °F 32% 30.24 in 6.2 mi South 15.0 mph - N/A   Unknown
10:30 AM 64.4 °F - 30.2 °F 28% 30.24 in 6.2 mi SSE 17.3 mph - N/A   Unknown
11:00 AM 64.4 °F - 30.2 °F 28% 30.24 in 6.2 mi SSE 17.3 mph - N/A   Unknown
11:30 AM 64 °F - 29 °F 16% 30.22 in - SSE 16.1 mph - -  
11:30 AM 64.4 °F - 28.4 °F 26% 30.24 in 6.2 mi SSE 16.1 mph - N/A   Unknown
12:00 PM 65 °F - 29 °F 15% 30.21 in - South 15.0 mph - -   Clear
12:00 PM 64.4 °F - 28.4 °F 26% 30.21 in 6.2 mi South 15.0 mph - N/A   Unknown
12:30 PM 64 °F - 29 °F 16% 30.20 in - SSE 16.1 mph - -  
12:30 PM 64.4 °F - 28.4 °F 26% 30.21 in 6.2 mi SSE 16.1 mph - N/A   Unknown
1:00 PM 66.2 °F - 28.4 °F 24% 30.18 in 6.2 mi SSE 13.8 mph - N/A   Unknown
1:30 PM 66.2 °F - 28.4 °F 24% 30.18 in 6.2 mi SSE 12.7 mph - N/A   Unknown
2:00 PM 66.2 °F - 30.2 °F 26% 30.18 in 6.2 mi South 12.7 mph - N/A   Unknown
2:30 PM 67 °F - 28 °F 13% 30.16 in - South 13.8 mph - -  
2:30 PM 68.0 °F - 28.4 °F 23% 30.18 in 6.2 mi South 13.8 mph - N/A   Unknown
3:00 PM 67 °F - 28 °F 13% 30.16 in - South 13.8 mph - -   Clear
3:00 PM 68.0 °F - 28.4 °F 23% 30.18 in 6.2 mi South 13.8 mph - N/A   Unknown
3:30 PM 68 °F - 29 °F 13% 30.15 in - SSE 13.8 mph - -  
3:30 PM 68.0 °F - 28.4 °F 23% 30.15 in 6.2 mi SSE 13.8 mph - N/A   Unknown
4:00 PM 68.0 °F - 26.6 °F 21% 30.15 in 6.2 mi South 12.7 mph - N/A   Unknown
4:30 PM 68.0 °F - 26.6 °F 21% 30.18 in 6.2 mi SSE 12.7 mph - N/A   Unknown
5:00 PM 68.0 °F - 26.6 °F 21% 30.18 in 6.2 mi South 12.7 mph - N/A   Unknown
5:30 PM 67 °F - 26 °F 11% 30.17 in - South 13.8 mph - -  
5:30 PM 66.2 °F - 24.8 °F 21% 30.18 in 6.2 mi South 13.8 mph - N/A   Unknown
6:00 PM 65 °F - 26 °F 12% 30.18 in - SSE 10.4 mph - -   Clear
6:00 PM 66.2 °F - 24.8 °F 21% 30.18 in 6.2 mi SSE 10.4 mph - N/A   Unknown
6:30 PM 63 °F - 26 °F 14% 30.20 in - South 9.2 mph - -  
6:30 PM 62.6 °F - 24.8 °F 24% 30.21 in 6.2 mi South 9.2 mph - N/A   Unknown
7:00 PM 60.8 °F - 26.6 °F 27% 30.21 in 6.2 mi SSE 8.1 mph - N/A   Unknown
7:30 PM 59.0 °F - 24.8 °F 27% 30.24 in 6.2 mi SSE 6.9 mph - N/A   Unknown
8:00 PM 55.4 °F - 24.8 °F 31% 30.24 in 6.2 mi South 5.8 mph - N/A   Unknown
8:30 PM 56 °F - 25 °F 18% 30.25 in - South 5.8 mph - -  
8:30 PM 55.4 °F - 24.8 °F 31% 30.24 in 6.2 mi South 5.8 mph - N/A   Unknown
9:00 PM 53 °F - 23 °F 19% 30.26 in - South 6.9 mph - -   Clear
9:00 PM 53.6 °F - 23.0 °F 30% 30.27 in 6.2 mi South 6.9 mph - N/A   Unknown
9:30 PM 51.8 °F - 23.0 °F 33% 30.27 in 6.2 mi South 5.8 mph - N/A   Unknown
10:00 PM 51.8 °F - 23.0 °F 33% 30.27 in 6.2 mi South 5.8 mph - N/A   Unknown
10:30 PM 50.0 °F - 21.2 °F 32% 30.30 in 6.2 mi South 6.9 mph - N/A   Unknown
11:00 PM 46.4 °F 43.5 °F 17.6 °F 32% 30.30 in 6.2 mi South 5.8 mph - N/A   Unknown
11:30 PM 47 °F - 19 °F 20% 30.29 in - South 6.9 mph - -  
11:30 PM 46.4 °F 42.9 °F 19.4 °F 34% 30.30 in 6.2 mi South 6.9 mph - N/A   Unknown